Main page
METAR-TAF:

METAR-TAF

Airports :

Corfu, Greece

Corfu International Airport

latitude: 39-37N, longitude: 019-55E, elevation: 2 m

Current weather observation

The report was made 33 minutes ago, at 09:20 UTC
Wind 4 kt from the South
Temperature 23°C
Humidity 69%
Pressure 1022 hPa
Visibility 10 km or more
Few clouds at a height of 3000 ft

METAR: LGKR 190920Z 17004KT 9999 FEW030 23/17 Q1022 NOSIG

Time: 12:53 (09:53 UTC)

Forecast

The report was made 4 hours and 11 minutes ago, at 05:42 UTC
Forecast valid from 19 at 05 UTC to 20 at 06 UTC
Wind 3 kt from variable directions
Visibility: 1000 m
Scattered clouds at a height of 300 ft
mist
Becoming
from 19 at 06 UTC to 19 at 08 UTC
Wind 10 kt from the North/Northwest
Visibility: 5000 m
Scattered clouds at a height of 1000 ft
mist
Becoming
from 19 at 08 UTC to 19 at 10 UTC
Visibility: 8000 m
Few clouds at a height of 1000 ft

TAF: LGKR 190542Z 1905/2006 VRB03KT 1000 BR SCT003 BECMG 1906/1908 33010KT 5000 BR SCT010 BECMG 1908/1910 8000 FEW010

Weather observations and forecasts of more than 4000 airports (METAR and TAF reports).

The available stations are represented by yellow and red dots on the map.

Hover mouse over dot to see the name of the station.

Then click to see weather observations and forecasts.

To change the map : click on the green buttons with a black cross to zoom in, on the green button with a dash to zoom out, or on the green arrows for adjacent maps.


METAR-TAF: